Time;durP1;ratioP1;P1;durP2;ratioP2;P2;SDS_P1;SDS_P2;PMS_P1;PMS_P2;Temp;Humidity;BMP_temperature;BMP_pressure;BME280_temperature;BME280_humidity;BME280_pressure;Samples;Min_cycle;Max_cycle;Signal;HPM_P1;HPM_P2
2022/03/13 00:01:04;;;;;;;;;;;;;;;-0.27;39.78;99197.28;1700611;83;20307;-80
2022/03/13 00:03:34;;;;;;;;;;;;;;;-0.25;39.83;99191.67;1703885;83;24770;-81
2022/03/13 00:06:00;;;;;;;;;;;;;;;-0.33;39.82;99189.22;1700433;83;22554;-81
2022/03/13 00:08:32;;;;;;;;;;;;;;;-0.38;39.84;99188.88;1699409;83;26660;-81
2022/03/13 00:11:00;;;;;;;;;;;;;;;-0.42;39.88;99188.05;1699699;83;25223;-81
2022/03/13 00:13:31;;;;;;;;;;;;;;;-0.42;39.90;99191.90;1703692;83;20304;-80
2022/03/13 00:15:58;;;;;;;;;;;;;;;-0.34;39.96;99185.37;1695480;83;24971;-81
2022/03/13 00:18:24;;;;;;;;;;;;;;;-0.26;40.02;99190.81;1693664;83;22247;-81
2022/03/13 00:20:51;;;;;;;;;;;;;;;-0.17;40.08;99194.99;1693100;84;25969;-81
2022/03/13 00:23:19;;;;;;;;;;;;;;;-0.17;40.11;99199.70;1694178;84;24406;-82
2022/03/13 00:25:45;;;;;;;;;;;;;;;-0.26;40.13;99199.81;1691682;83;20218;-82
2022/03/13 00:28:12;;;;;;;;;;;;;;;-0.26;40.17;99196.39;1694888;84;24939;-82
2022/03/13 00:30:39;;;;;;;;;;;;;;;-0.36;40.20;99199.53;1689580;83;21967;-82
2022/03/13 00:33:06;;;;;;;;;;;;;;;-0.53;40.19;99199.76;1696009;83;26095;-82
2022/03/13 00:35:32;;;;;;;;;;;;;;;-0.66;40.19;99195.67;1690768;83;24539;-82
2022/03/13 00:37:59;;;;;;;;;;;;;;;-0.72;40.20;99191.89;1694938;83;20331;-82
2022/03/13 00:40:26;;;;;;;;;;;;;;;-0.73;40.25;99194.03;1691428;84;24935;-82
2022/03/13 00:42:52;;;;;;;;;;;;;;;-0.60;40.32;99198.13;1688967;83;22041;-82
2022/03/13 00:45:18;;;;;;;;;;;;;;;-0.57;40.39;99190.39;1691054;83;25932;-81
2022/03/13 00:47:44;;;;;;;;;;;;;;;-0.51;40.44;99189.47;1693265;83;24425;-81
2022/03/13 00:50:11;;;;;;;;;;;;;;;-0.45;40.49;99187.67;1696800;83;20340;-81
2022/03/13 00:52:37;;;;;;;;;;;;;;;-0.37;40.59;99182.83;1690870;83;24905;-81
2022/03/13 00:55:03;;;;;;;;;;;;;;;-0.29;40.67;99190.02;1691714;83;22884;-80
2022/03/13 00:57:29;;;;;;;;;;;;;;;-0.28;40.72;99187.86;1691256;83;26114;-82
2022/03/13 00:59:55;;;;;;;;;;;;;;;-0.25;40.78;99182.66;1695393;83;24281;-80
2022/03/13 01:02:22;;;;;;;;;;;;;;;-0.27;40.80;99187.82;1691276;83;20223;-80
2022/03/13 01:04:48;;;;;;;;;;;;;;;-0.28;40.79;99186.58;1688440;83;24415;-80
2022/03/13 01:07:14;;;;;;;;;;;;;;;-0.25;40.83;99182.66;1693574;83;22029;-80
2022/03/13 01:09:41;;;;;;;;;;;;;;;-0.20;40.88;99175.73;1693680;83;25994;-81
2022/03/13 01:12:08;;;;;;;;;;;;;;;-0.20;40.91;99177.02;1692820;83;25320;-81
2022/03/13 01:14:36;;;;;;;;;;;;;;;-0.16;40.95;99169.66;1691603;83;20526;-81
2022/03/13 01:17:04;;;;;;;;;;;;;;;-0.30;40.93;99166.45;1702081;83;25174;-81
2022/03/13 01:19:30;;;;;;;;;;;;;;;-0.49;40.93;99163.28;1669374;83;22027;-81
2022/03/13 01:21:57;;;;;;;;;;;;;;;-0.49;40.95;99158.99;1700340;83;26050;-81
2022/03/13 01:24:30;;;;;;;;;;;;;;;-0.42;41.02;99154.19;1674513;83;25585;-80
2022/03/13 01:27:01;;;;;;;;;;;;;;;-0.31;41.07;99159.61;1664602;85;20909;-82
2022/03/13 01:29:29;;;;;;;;;;;;;;;-0.33;41.10;99156.23;1659987;85;25332;-82
2022/03/13 01:31:55;;;;;;;;;;;;;;;-0.52;41.08;99151.77;1666234;85;22100;-81
2022/03/13 01:34:34;;;;;;;;;;;;;;;-0.54;41.10;99153.06;1647483;84;25943;-81
2022/03/13 01:37:02;;;;;;;;;;;;;;;-0.43;41.18;99149.91;1668063;85;25224;-81
2022/03/13 01:39:29;;;;;;;;;;;;;;;-0.38;41.22;99154.98;1663932;85;21380;-81
2022/03/13 01:41:56;;;;;;;;;;;;;;;-0.40;41.24;99144.33;1678436;84;25221;-82
2022/03/13 01:44:22;;;;;;;;;;;;;;;-0.38;41.25;99143.88;1639175;85;22799;-82
2022/03/13 01:46:48;;;;;;;;;;;;;;;-0.44;41.25;99141.78;1651660;84;26056;-82
2022/03/13 01:49:15;;;;;;;;;;;;;;;-0.50;41.27;99143.18;1649923;85;25201;-83
2022/03/13 01:51:42;;;;;;;;;;;;;;;-0.47;41.30;99142.27;1668992;84;20559;-83
2022/03/13 01:54:10;;;;;;;;;;;;;;;-0.40;41.33;99145.61;1680658;84;25028;-83
2022/03/13 01:56:36;;;;;;;;;;;;;;;-0.33;41.38;99148.52;1674330;84;22157;-82
2022/03/13 01:59:03;;;;;;;;;;;;;;;-0.34;41.39;99146.38;1662741;85;26226;-82
2022/03/13 02:01:29;;;;;;;;;;;;;;;-0.36;41.41;99143.39;1682604;83;24375;-81
2022/03/13 02:03:57;;;;;;;;;;;;;;;-0.32;41.46;99135.61;1669866;84;20698;-82
2022/03/13 02:06:24;;;;;;;;;;;;;;;-0.40;41.47;99139.18;1675547;84;25205;-81
2022/03/13 02:08:51;;;;;;;;;;;;;;;-0.55;41.48;99141.55;1677665;84;22074;-81
2022/03/13 02:11:19;;;;;;;;;;;;;;;-0.55;41.52;99137.26;1665048;84;26046;-81
2022/03/13 02:13:48;;;;;;;;;;;;;;;-0.51;41.56;99125.20;1661002;85;25087;-81
2022/03/13 02:16:14;;;;;;;;;;;;;;;-0.58;41.56;99130.86;1683166;83;20372;-82
2022/03/13 02:18:41;;;;;;;;;;;;;;;-0.68;41.56;99127.16;1697784;83;25183;-82
2022/03/13 02:21:10;;;;;;;;;;;;;;;-0.79;41.58;99127.30;1697449;83;22124;-81
2022/03/13 02:23:37;;;;;;;;;;;;;;;-0.81;41.63;99123.89;1698242;83;26622;-81
2022/03/13 02:26:04;;;;;;;;;;;;;;;-1.03;41.68;99121.18;1680713;84;24673;-81
2022/03/13 02:28:35;;;;;;;;;;;;;;;-1.19;41.69;99114.10;1697600;83;20300;-82
2022/03/13 02:31:02;;;;;;;;;;;;;;;-1.26;41.74;99120.20;1698456;83;25561;-82
2022/03/13 02:33:29;;;;;;;;;;;;;;;-1.42;41.78;99123.80;1699370;83;21995;-82
2022/03/13 02:35:57;;;;;;;;;;;;;;;-1.57;41.80;99122.66;1697940;83;26093;-82
2022/03/13 02:38:27;;;;;;;;;;;;;;;-1.57;41.87;99128.65;1697585;83;25127;-82
2022/03/13 02:40:54;;;;;;;;;;;;;;;-1.51;41.94;99125.17;1694799;84;20245;-82
2022/03/13 02:43:21;;;;;;;;;;;;;;;-1.42;42.06;99115.64;1697069;83;24993;-82
2022/03/13 02:45:47;;;;;;;;;;;;;;;-1.30;42.17;99115.52;1698559;84;21964;-82
2022/03/13 02:48:13;;;;;;;;;;;;;;;-1.20;42.26;99109.83;1699105;83;26056;-83
2022/03/13 02:50:40;;;;;;;;;;;;;;;-1.09;42.33;99111.02;1696199;83;24452;-82
2022/03/13 02:53:06;;;;;;;;;;;;;;;-1.07;42.37;99117.81;1700132;83;20231;-81
2022/03/13 02:55:32;;;;;;;;;;;;;;;-0.98;42.43;99105.27;1698452;83;25328;-81
2022/03/13 02:57:59;;;;;;;;;;;;;;;-1.14;42.43;99107.19;1699685;83;22000;-81
2022/03/13 03:00:42;;;;;;;;;;;;;;;-1.19;42.47;99107.68;1699015;83;26069;-81
2022/03/13 03:03:09;;;;;;;;;;;;;;;-1.24;42.50;99113.31;1700469;83;25238;-82
2022/03/13 03:05:35;;;;;;;;;;;;;;;-1.19;42.56;99111.53;1699447;83;20403;-82
2022/03/13 03:08:01;;;;;;;;;;;;;;;-1.12;42.63;99114.88;1699776;83;25029;-81
2022/03/13 03:10:27;;;;;;;;;;;;;;;-1.03;42.70;99112.19;1698188;83;22754;-81
2022/03/13 03:12:53;;;;;;;;;;;;;;;-0.99;42.74;99116.02;1697312;83;26055;-81
2022/03/13 03:15:19;;;;;;;;;;;;;;;-1.07;42.76;99110.54;1695815;83;24414;-81
2022/03/13 03:17:45;;;;;;;;;;;;;;;-1.29;42.74;99115.94;1692919;83;20277;-82
2022/03/13 03:20:11;;;;;;;;;;;;;;;-1.36;42.75;99114.73;1691203;84;25578;-83
2022/03/13 03:22:38;;;;;;;;;;;;;;;-1.28;42.81;99125.77;1697366;83;22185;-82
2022/03/13 03:25:05;;;;;;;;;;;;;;;-1.19;42.91;99115.81;1692062;83;25942;-81
2022/03/13 03:27:31;;;;;;;;;;;;;;;-1.15;42.95;99112.37;1690727;84;24483;-81
2022/03/13 03:29:59;;;;;;;;;;;;;;;-1.12;42.98;99113.17;1690025;83;20336;-82
2022/03/13 03:32:25;;;;;;;;;;;;;;;-1.03;43.02;99111.76;1692768;83;24950;-82
2022/03/13 03:34:52;;;;;;;;;;;;;;;-1.10;43.05;99108.87;1670323;84;22045;-82
2022/03/13 03:37:18;;;;;;;;;;;;;;;-1.09;43.10;99102.02;1683142;83;25236;-82
2022/03/13 03:39:44;;;;;;;;;;;;;;;-1.06;43.14;99101.97;1660258;85;24485;-82
2022/03/13 03:42:10;;;;;;;;;;;;;;;-1.14;43.16;99104.63;1664612;85;20259;-82
2022/03/13 03:44:36;;;;;;;;;;;;;;;-1.39;43.16;99102.80;1663522;85;25243;-81
2022/03/13 03:47:05;;;;;;;;;;;;;;;-1.39;43.19;99100.66;1664156;85;20320;-81
2022/03/13 03:49:34;;;;;;;;;;;;;;;-1.33;43.25;99106.58;1660361;85;26087;-81
2022/03/13 03:51:59;;;;;;;;;;;;;;;-1.38;43.25;99105.78;1656809;85;25373;-82
2022/03/13 03:54:26;;;;;;;;;;;;;;;-1.54;43.27;99109.81;1660299;85;21414;-81
2022/03/13 03:56:52;;;;;;;;;;;;;;;-1.66;43.28;99107.38;1669840;85;25235;-82
2022/03/13 03:59:21;;;;;;;;;;;;;;;-1.53;43.37;99108.53;1662972;85;22174;-82
2022/03/13 04:01:47;;;;;;;;;;;;;;;-1.40;43.46;99100.23;1668710;84;26933;-82
2022/03/13 04:04:14;;;;;;;;;;;;;;;-1.36;43.53;99102.75;1668943;85;24474;-82
2022/03/13 04:06:40;;;;;;;;;;;;;;;-1.33;43.57;99101.87;1666263;85;20592;-81
2022/03/13 04:09:07;;;;;;;;;;;;;;;-1.30;43.62;99097.97;1664696;85;25034;-82
2022/03/13 04:11:33;;;;;;;;;;;;;;;-1.27;43.67;99098.81;1707042;82;22046;-81
2022/03/13 04:13:59;;;;;;;;;;;;;;;-1.22;43.73;99104.31;1708354;82;26004;-81
2022/03/13 04:16:26;;;;;;;;;;;;;;;-1.18;43.78;99106.81;1698459;82;24606;-81
2022/03/13 04:18:54;;;;;;;;;;;;;;;-1.23;43.83;99097.47;1701937;83;20621;-81
2022/03/13 04:21:20;;;;;;;;;;;;;;;-1.25;43.87;99100.52;1690533;83;25179;-81
2022/03/13 04:23:46;;;;;;;;;;;;;;;-1.19;43.92;99096.56;1690191;83;22061;-82
2022/03/13 04:26:12;;;;;;;;;;;;;;;-1.27;43.92;99098.81;1696894;83;26026;-81
2022/03/13 04:28:39;;;;;;;;;;;;;;;-1.28;43.96;99101.38;1657049;85;20305;-81
2022/03/13 04:31:06;;;;;;;;;;;;;;;-1.41;43.95;99104.52;1649698;85;20349;-82
2022/03/13 04:33:33;;;;;;;;;;;;;;;-1.63;43.94;99100.91;1665415;85;25112;-82
2022/03/13 04:36:00;;;;;;;;;;;;;;;-1.63;43.97;99110.75;1661621;85;21878;-83
2022/03/13 04:38:27;;;;;;;;;;;;;;;-1.58;44.03;99098.72;1685685;82;26058;-82
2022/03/13 04:40:54;;;;;;;;;;;;;;;-1.68;44.04;99109.95;1707837;82;24401;-82
2022/03/13 04:43:21;;;;;;;;;;;;;;;-1.83;44.02;99114.80;1710315;82;20209;-82
2022/03/13 04:45:48;;;;;;;;;;;;;;;-1.95;44.03;99107.64;1705078;82;25120;-82
2022/03/13 04:48:15;;;;;;;;;;;;;;;-1.97;44.08;99102.98;1710287;83;22024;-83
2022/03/13 04:50:41;;;;;;;;;;;;;;;-1.82;44.17;99102.41;1662501;84;26022;-82
2022/03/13 04:53:07;;;;;;;;;;;;;;;-1.65;44.28;99100.09;1663816;84;24486;-83
2022/03/13 04:55:34;;;;;;;;;;;;;;;-1.74;44.30;99102.30;1698025;83;20304;-83
2022/03/13 04:58:01;;;;;;;;;;;;;;;-1.92;44.32;99107.20;1700214;83;25032;-83
2022/03/13 05:00:27;;;;;;;;;;;;;;;-2.04;44.31;99103.89;1693849;84;22906;-83
2022/03/13 05:02:54;;;;;;;;;;;;;;;-1.97;44.35;99101.70;1693586;84;26101;-83
2022/03/13 05:05:21;;;;;;;;;;;;;;;-1.89;44.42;99103.31;1690315;83;24518;-83
2022/03/13 05:07:54;;;;;;;;;;;;;;;-1.79;44.50;99106.63;1693355;83;20226;-82
2022/03/13 05:10:20;;;;;;;;;;;;;;;-1.75;44.54;99100.63;1693600;83;25017;-82
2022/03/13 05:12:47;;;;;;;;;;;;;;;-1.66;44.59;99103.09;1691784;83;21935;-82
2022/03/13 05:15:13;;;;;;;;;;;;;;;-1.58;44.64;99106.88;1679256;84;25948;-82
2022/03/13 05:17:39;;;;;;;;;;;;;;;-1.69;44.67;99112.09;1709337;82;24527;-81
2022/03/13 05:20:08;;;;;;;;;;;;;;;-1.87;44.65;99114.85;1709240;82;20252;-80
2022/03/13 05:22:34;;;;;;;;;;;;;;;-2.00;44.64;99113.25;1709915;82;24955;-81
2022/03/13 05:25:00;;;;;;;;;;;;;;;-2.05;44.68;99113.72;1714258;82;21906;-81
2022/03/13 05:27:26;;;;;;;;;;;;;;;-2.16;44.69;99116.37;1708447;82;25941;-81
2022/03/13 05:29:52;;;;;;;;;;;;;;;-2.26;44.72;99114.33;1703527;82;24411;-81
2022/03/13 05:32:18;;;;;;;;;;;;;;;-2.31;44.74;99119.92;1707151;82;21002;-81
2022/03/13 05:34:47;;;;;;;;;;;;;;;-2.30;44.84;99122.06;1704338;83;24943;-81
2022/03/13 05:37:12;;;;;;;;;;;;;;;-2.28;44.87;99122.88;1703530;82;22167;-81
2022/03/13 05:39:38;;;;;;;;;;;;;;;-2.28;44.95;99128.86;1709001;83;25974;-82
2022/03/13 05:42:06;;;;;;;;;;;;;;;-2.25;45.03;99131.41;1707108;82;24515;-81
2022/03/13 05:44:35;;;;;;;;;;;;;;;-2.27;45.06;99136.97;1706078;82;20247;-82
2022/03/13 05:47:02;;;;;;;;;;;;;;;-2.23;45.13;99134.80;1709058;83;25037;-84
2022/03/13 05:49:28;;;;;;;;;;;;;;;-1.96;45.24;99140.56;1707253;82;22066;-84
2022/03/13 05:51:56;;;;;;;;;;;;;;;-1.78;45.37;99139.98;1683943;83;21871;-82
2022/03/13 05:54:22;;;;;;;;;;;;;;;-1.65;45.47;99148.84;1710045;82;25204;-81
2022/03/13 05:56:49;;;;;;;;;;;;;;;-1.56;45.54;99140.62;1710477;81;20549;-81
2022/03/13 05:59:17;;;;;;;;;;;;;;;-1.55;45.58;99142.33;1706173;82;25109;-81
2022/03/13 06:01:44;;;;;;;;;;;;;;;-1.48;45.63;99139.27;1709697;82;22709;-82
2022/03/13 06:04:10;;;;;;;;;;;;;;;-1.45;45.65;99135.38;1710893;82;25925;-81
2022/03/13 06:06:37;;;;;;;;;;;;;;;-1.39;45.68;99134.03;1711620;82;24503;-81
2022/03/13 06:09:03;;;;;;;;;;;;;;;-1.27;45.72;99136.03;1710361;82;20255;-81
2022/03/13 06:11:29;;;;;;;;;;;;;;;-1.21;45.74;99135.55;1710864;82;25010;-82
2022/03/13 06:13:55;;;;;;;;;;;;;;;-1.12;45.76;99136.71;1704806;82;21987;-81
2022/03/13 06:16:22;;;;;;;;;;;;;;;-1.13;45.75;99141.00;1707991;83;25964;-82
2022/03/13 06:18:48;;;;;;;;;;;;;;;-1.14;45.75;99141.86;1690968;83;25302;-82
2022/03/13 06:21:14;;;;;;;;;;;;;;;-1.04;45.76;99140.05;1691314;83;20249;-82
2022/03/13 06:23:40;;;;;;;;;;;;;;;-0.93;45.78;99142.88;1676788;83;24977;-82
2022/03/13 06:26:07;;;;;;;;;;;;;;;-0.90;45.80;99145.86;1672834;84;21962;-82
2022/03/13 06:28:34;;;;;;;;;;;;;;;-0.90;45.79;99148.00;1665928;84;26069;-82
2022/03/13 06:31:00;;;;;;;;;;;;;;;-0.76;45.80;99154.23;1671823;84;24595;-81
2022/03/13 06:33:28;;;;;;;;;;;;;;;-0.66;45.85;99149.84;1670446;84;20199;-84
2022/03/13 06:35:55;;;;;;;;;;;;;;;-0.62;45.85;99152.77;1671267;84;25057;-84
2022/03/13 06:38:22;;;;;;;;;;;;;;;-0.56;45.87;99148.84;1672025;84;22001;-82
2022/03/13 06:40:48;;;;;;;;;;;;;;;-0.49;45.87;99149.14;1672524;84;26018;-83
2022/03/13 06:43:14;;;;;;;;;;;;;;;-0.38;45.89;99155.45;1672086;84;25146;-83
2022/03/13 06:45:42;;;;;;;;;;;;;;;-0.25;45.94;99161.66;1686961;83;20268;-83
2022/03/13 06:48:08;;;;;;;;;;;;;;;-0.18;45.93;99160.70;1670124;83;24893;-82
2022/03/13 06:50:34;;;;;;;;;;;;;;;-0.18;45.91;99162.42;1684152;83;22022;-83
2022/03/13 06:53:01;;;;;;;;;;;;;;;-0.18;45.90;99168.42;1682915;83;26066;-82
2022/03/13 06:55:27;;;;;;;;;;;;;;;-0.15;45.88;99168.36;1673914;83;24654;-82
2022/03/13 06:57:55;;;;;;;;;;;;;;;-0.11;45.88;99170.47;1681381;83;20269;-82
2022/03/13 07:00:21;;;;;;;;;;;;;;;-0.08;45.87;99167.83;1685623;83;24959;-82
2022/03/13 07:02:48;;;;;;;;;;;;;;;-0.04;45.90;99169.48;1685156;83;22999;-82
2022/03/13 07:05:14;;;;;;;;;;;;;;;-0.02;45.91;99167.73;1677520;83;26101;-82
2022/03/13 07:07:40;;;;;;;;;;;;;;;0.07;45.95;99166.73;1652413;85;24457;-82
2022/03/13 07:10:11;;;;;;;;;;;;;;;0.15;46.01;99164.90;1663690;84;20286;-82
2022/03/13 07:12:34;;;;;;;;;;;;;;;0.26;46.05;99157.84;1670990;84;24999;-82
2022/03/13 07:15:01;;;;;;;;;;;;;;;0.40;46.12;99150.72;1665315;84;22262;-82
2022/03/13 07:17:27;;;;;;;;;;;;;;;0.61;46.17;99154.63;1657636;84;25892;-82
2022/03/13 07:19:53;;;;;;;;;;;;;;;0.67;46.18;99150.22;1642300;86;24476;-82
2022/03/13 07:22:19;;;;;;;;;;;;;;;0.67;46.13;99151.95;1655672;84;20566;-84
2022/03/13 07:24:48;;;;;;;;;;;;;;;0.71;46.11;99147.99;1653820;85;24986;-83
2022/03/13 07:27:15;;;;;;;;;;;;;;;0.80;46.11;99145.26;1639431;85;22080;-81
2022/03/13 07:29:41;;;;;;;;;;;;;;;0.86;46.09;99147.30;1659818;85;26022;-83
2022/03/13 07:32:07;;;;;;;;;;;;;;;0.88;46.03;99142.52;1654385;85;24477;-81
2022/03/13 07:34:33;;;;;;;;;;;;;;;0.92;45.99;99148.04;1654486;85;20424;-83
2022/03/13 07:37:00;;;;;;;;;;;;;;;0.98;45.99;99143.20;1653729;85;24964;-82
2022/03/13 07:39:26;;;;;;;;;;;;;;;1.02;46.00;99146.97;1657988;85;21989;-81
2022/03/13 07:41:55;;;;;;;;;;;;;;;1.11;46.00;99141.63;1635699;85;25863;-82
2022/03/13 07:44:21;;;;;;;;;;;;;;;1.19;45.99;99142.77;1638176;86;25280;-81
2022/03/13 07:46:47;;;;;;;;;;;;;;;1.31;45.99;99140.37;1656618;85;20263;-81
2022/03/13 07:49:13;;;;;;;;;;;;;;;1.33;45.98;99146.33;1647782;85;24920;-82
2022/03/13 07:51:39;;;;;;;;;;;;;;;1.36;45.98;99143.70;1648218;86;21972;-81
2022/03/13 07:54:05;;;;;;;;;;;;;;;1.38;45.99;99143.20;1611955;86;26997;-81
2022/03/13 07:56:32;;;;;;;;;;;;;;;1.44;46.04;99149.08;1637199;86;24601;-82
2022/03/13 07:58:59;;;;;;;;;;;;;;;1.49;46.12;99147.69;1643806;85;20359;-82
2022/03/13 08:01:25;;;;;;;;;;;;;;;1.60;46.21;99146.57;1640478;86;24964;-82
2022/03/13 08:03:51;;;;;;;;;;;;;;;1.73;46.27;99141.98;1637836;86;22059;-81
2022/03/13 08:06:17;;;;;;;;;;;;;;;1.80;46.29;99150.44;1619095;86;26004;-81
2022/03/13 08:08:44;;;;;;;;;;;;;;;1.82;46.30;99148.22;1640945;86;24572;-82
2022/03/13 08:11:10;;;;;;;;;;;;;;;1.90;46.33;99145.03;1653825;85;20262;-82
2022/03/13 08:13:36;;;;;;;;;;;;;;;1.98;46.36;99144.83;1636994;85;25037;-84
2022/03/13 08:16:02;;;;;;;;;;;;;;;2.04;46.36;99149.84;1641057;86;22087;-84
2022/03/13 08:18:29;;;;;;;;;;;;;;;2.05;46.34;99153.69;1626136;86;26051;-84
2022/03/13 08:20:56;;;;;;;;;;;;;;;2.16;46.38;99149.55;1657554;85;24528;-81
2022/03/13 08:23:22;;;;;;;;;;;;;;;2.25;46.41;99147.17;1646013;85;20217;-81
2022/03/13 08:25:48;;;;;;;;;;;;;;;2.35;46.42;99149.92;1641665;86;25039;-81
2022/03/13 08:28:14;;;;;;;;;;;;;;;2.30;46.41;99150.48;1644615;86;22077;-82
2022/03/13 08:30:40;;;;;;;;;;;;;;;2.36;46.44;99147.75;1638037;86;25950;-81
2022/03/13 08:33:07;;;;;;;;;;;;;;;2.52;46.52;99147.77;1639124;86;24447;-82
2022/03/13 08:35:34;;;;;;;;;;;;;;;2.65;46.59;99141.84;1655843;85;20315;-81
2022/03/13 08:38:00;;;;;;;;;;;;;;;2.74;46.63;99146.75;1655510;85;25063;-82
2022/03/13 08:40:26;;;;;;;;;;;;;;;2.78;46.63;99142.74;1657784;85;22034;-82
2022/03/13 08:42:54;;;;;;;;;;;;;;;2.85;46.66;99136.52;1635580;85;26003;-81
2022/03/13 08:45:20;;;;;;;;;;;;;;;2.96;46.66;99140.10;1621768;87;23903;-81
2022/03/13 08:47:47;;;;;;;;;;;;;;;3.05;46.67;99141.16;1643313;85;20368;-84
2022/03/13 08:50:14;;;;;;;;;;;;;;;3.18;46.68;99137.75;1649019;85;25240;-84
2022/03/13 08:52:40;;;;;;;;;;;;;;;3.29;46.68;99140.88;1625663;85;22036;-84
2022/03/13 08:55:08;;;;;;;;;;;;;;;3.26;46.59;99134.07;1655763;85;26057;-82
2022/03/13 08:57:34;;;;;;;;;;;;;;;3.30;46.54;99135.67;1653641;85;24580;-81
2022/03/13 09:00:00;;;;;;;;;;;;;;;3.36;46.52;99130.31;1653641;85;20300;-80
2022/03/13 09:02:27;;;;;;;;;;;;;;;3.47;46.52;99139.05;1638164;86;25221;-82
2022/03/13 09:04:53;;;;;;;;;;;;;;;3.43;46.37;99132.28;1635660;85;22083;-81
2022/03/13 09:07:20;;;;;;;;;;;;;;;3.36;46.22;99125.14;1633984;86;26005;-81
2022/03/13 09:09:46;;;;;;;;;;;;;;;3.36;46.09;99124.30;1633186;86;25166;-80
2022/03/13 09:12:13;;;;;;;;;;;;;;;3.36;46.02;99125.59;1632810;86;20358;-82
2022/03/13 09:14:39;;;;;;;;;;;;;;;3.43;45.97;99127.55;1634644;85;25062;-81
2022/03/13 09:17:05;;;;;;;;;;;;;;;3.54;45.99;99125.48;1635841;84;21974;-80
2022/03/13 09:19:32;;;;;;;;;;;;;;;3.68;46.02;99129.34;1664453;84;26781;-81
2022/03/13 09:21:58;;;;;;;;;;;;;;;3.77;45.99;99123.02;1666898;84;25133;-80
2022/03/13 09:24:24;;;;;;;;;;;;;;;3.87;45.97;99124.45;1664583;84;20242;-81
2022/03/13 09:26:50;;;;;;;;;;;;;;;3.98;45.95;99128.80;1676733;84;25109;-83
2022/03/13 09:29:16;;;;;;;;;;;;;;;4.09;45.89;99124.59;1673378;83;22071;-82
2022/03/13 09:31:42;;;;;;;;;;;;;;;4.11;45.77;99126.22;1685784;84;25926;-82
2022/03/13 09:34:13;;;;;;;;;;;;;;;4.11;45.60;99124.92;1669229;84;24404;-82
2022/03/13 09:36:37;;;;;;;;;;;;;;;4.18;45.44;99125.58;1680995;84;20226;-82
2022/03/13 09:39:07;;;;;;;;;;;;;;;4.23;45.26;99123.68;1683078;84;25102;-83
2022/03/13 09:41:33;;;;;;;;;;;;;;;4.34;45.20;99124.62;1685092;84;22053;-82
2022/03/13 09:43:59;;;;;;;;;;;;;;;4.38;45.05;99128.34;1681640;84;25994;-83
2022/03/13 09:46:25;;;;;;;;;;;;;;;4.41;44.90;99127.41;1682820;84;24491;-83
2022/03/13 09:48:52;;;;;;;;;;;;;;;4.41;44.79;99117.89;1684203;84;20550;-83
2022/03/13 09:51:18;;;;;;;;;;;;;;;4.45;44.70;99115.58;1681905;84;24992;-82
2022/03/13 09:53:45;;;;;;;;;;;;;;;4.55;44.67;99114.36;1683625;84;22047;-83
2022/03/13 09:56:11;;;;;;;;;;;;;;;4.62;44.61;99109.37;1679126;84;25992;-82
2022/03/13 09:58:37;;;;;;;;;;;;;;;4.72;44.59;99113.77;1682919;84;24522;-83
2022/03/13 10:01:05;;;;;;;;;;;;;;;4.74;44.56;99106.80;1682573;84;20522;-84
2022/03/13 10:03:31;;;;;;;;;;;;;;;4.77;44.49;99108.42;1679871;84;25801;-82
2022/03/13 10:05:58;;;;;;;;;;;;;;;4.79;44.44;99103.59;1677185;84;21977;-83
2022/03/13 10:08:29;;;;;;;;;;;;;;;4.83;44.41;99103.02;1678041;84;26036;-83
2022/03/13 10:10:56;;;;;;;;;;;;;;;4.86;44.39;99096.41;1680065;84;24506;-83
2022/03/13 10:13:33;;;;;;;;;;;;;;;4.91;44.38;99097.12;1682439;84;20254;-82
2022/03/13 10:16:00;;;;;;;;;;;;;;;4.98;44.37;99094.67;1680772;83;24962;-83
2022/03/13 10:18:26;;;;;;;;;;;;;;;5.01;44.32;99091.98;1667409;84;22088;-83
2022/03/13 10:20:53;;;;;;;;;;;;;;;5.01;44.22;99086.80;1663338;85;26111;-83
2022/03/13 10:23:22;;;;;;;;;;;;;;;5.00;44.10;99088.98;1653703;85;24777;-82
2022/03/13 10:25:49;;;;;;;;;;;;;;;5.04;43.99;99087.97;1659211;85;20274;-83
2022/03/13 10:28:20;;;;;;;;;;;;;;;5.09;43.86;99088.64;1660780;85;25125;-83
2022/03/13 10:30:48;;;;;;;;;;;;;;;5.13;43.70;99086.80;1655508;85;21573;-83
2022/03/13 10:33:14;;;;;;;;;;;;;;;5.16;43.56;99084.92;1655757;85;26000;-82
2022/03/13 10:35:40;;;;;;;;;;;;;;;5.23;43.45;99079.05;1663472;85;24510;-82
2022/03/13 10:38:14;;;;;;;;;;;;;;;5.32;43.32;99083.44;1651613;85;20246;-82
2022/03/13 10:40:40;;;;;;;;;;;;;;;5.38;43.13;99078.02;1655772;85;25965;-81
2022/03/13 10:43:07;;;;;;;;;;;;;;;5.44;42.89;99072.59;1646369;85;21992;-82
2022/03/13 10:45:38;;;;;;;;;;;;;;;5.46;42.62;99070.76;1614676;87;25990;-82
2022/03/13 10:48:18;;;;;;;;;;;;;;;5.50;42.44;99063.72;1652193;86;24511;-82
2022/03/13 10:50:45;;;;;;;;;;;;;;;5.58;42.32;99065.55;1651715;86;20226;-82
2022/03/13 10:53:12;;;;;;;;;;;;;;;5.67;42.17;99061.30;1650834;86;25074;-81
2022/03/13 10:55:41;;;;;;;;;;;;;;;5.74;42.13;99060.12;1653543;86;21990;-81
2022/03/13 10:58:07;;;;;;;;;;;;;;;5.82;42.04;99061.98;1645621;86;26094;-82
2022/03/13 11:00:35;;;;;;;;;;;;;;;5.88;41.92;99062.22;1646171;86;24316;-82
2022/03/13 11:03:12;;;;;;;;;;;;;;;5.92;41.79;99059.88;1640489;86;20260;-82
2022/03/13 11:05:42;;;;;;;;;;;;;;;6.02;41.72;99065.08;1653296;86;25061;-82
2022/03/13 11:08:09;;;;;;;;;;;;;;;6.15;41.63;99057.17;1644553;86;22002;-82
2022/03/13 11:10:38;;;;;;;;;;;;;;;6.25;41.55;99051.13;1641370;86;26653;-82
2022/03/13 11:13:04;;;;;;;;;;;;;;;6.32;41.47;99049.97;1638582;86;24445;-85
2022/03/13 11:15:31;;;;;;;;;;;;;;;6.39;41.40;99051.37;1647401;86;20297;-85
2022/03/13 11:17:58;;;;;;;;;;;;;;;6.44;41.29;99048.11;1656892;84;25100;-84
2022/03/13 11:20:24;;;;;;;;;;;;;;;6.51;41.23;99036.55;1675343;84;22042;-84
2022/03/13 11:22:50;;;;;;;;;;;;;;;6.62;41.21;99043.88;1675223;84;26059;-85
2022/03/13 11:25:17;;;;;;;;;;;;;;;6.72;41.16;99040.80;1681424;84;24443;-85
2022/03/13 11:27:45;;;;;;;;;;;;;;;6.80;41.12;99031.36;1671796;84;20251;-86
2022/03/13 11:30:15;;;;;;;;;;;;;;;6.84;40.96;99034.20;1671394;84;24948;-86
2022/03/13 11:32:52;;;;;;;;;;;;;;;6.89;40.82;99027.48;1682738;84;22011;-86
2022/03/13 11:35:20;;;;;;;;;;;;;;;6.95;40.73;99027.21;1647557;85;26818;-86
2022/03/13 11:37:47;;;;;;;;;;;;;;;7.04;40.64;99024.17;1688552;84;24435;-85
2022/03/13 11:40:15;;;;;;;;;;;;;;;7.11;40.51;99026.44;1693274;83;20264;-85
2022/03/13 11:42:52;;;;;;;;;;;;;;;7.18;40.42;99019.19;1691646;84;24968;-82
2022/03/13 11:45:35;;;;;;;;;;;;;;;7.28;40.34;99019.14;1683209;83;22693;-81
2022/03/13 11:48:06;;;;;;;;;;;;;;;7.37;40.22;99017.84;1700591;83;26019;-81
2022/03/13 11:50:51;;;;;;;;;;;;;;;7.44;40.08;99007.53;1692675;84;23910;-81
2022/03/13 11:53:19;;;;;;;;;;;;;;;7.49;39.88;99010.30;1688844;84;20355;-81
2022/03/13 11:56:11;;;;;;;;;;;;;;;7.58;39.73;99005.13;1694587;84;24998;-81
2022/03/13 11:58:50;;;;;;;;;;;;;;;7.62;39.57;99007.96;1687842;83;21963;-82
2022/03/13 12:01:23;;;;;;;;;;;;;;;7.67;39.35;98998.61;1687760;83;26045;-81
2022/03/13 12:04:03;;;;;;;;;;;;;;;7.75;39.27;98994.70;1698370;83;24343;-81
2022/03/13 12:06:47;;;;;;;;;;;;;;;7.89;39.23;98997.48;1690990;83;20309;-81
2022/03/13 12:09:15;;;;;;;;;;;;;;;7.97;39.12;98986.20;1689561;83;24977;-85
2022/03/13 12:11:43;;;;;;;;;;;;;;;8.05;38.99;98992.34;1685711;84;22744;-85
2022/03/13 12:14:11;;;;;;;;;;;;;;;8.09;38.85;98985.19;1690022;83;26974;-85
2022/03/13 12:16:38;;;;;;;;;;;;;;;8.15;38.69;98987.49;1696658;83;24465;-85
2022/03/13 12:19:05;;;;;;;;;;;;;;;8.18;38.55;98984.25;1689567;83;20307;-82
2022/03/13 12:21:32;;;;;;;;;;;;;;;8.21;38.48;98982.81;1692745;84;25218;-83
2022/03/13 12:24:15;;;;;;;;;;;;;;;8.27;38.47;98980.35;1695876;83;21985;-83
2022/03/13 12:26:42;;;;;;;;;;;;;;;8.33;38.48;98976.16;1691437;83;26216;-85
2022/03/13 12:29:10;;;;;;;;;;;;;;;8.44;38.54;98975.14;1688408;83;24474;-85
2022/03/13 12:31:40;;;;;;;;;;;;;;;8.47;38.54;98978.03;1687985;83;20325;-83
2022/03/13 12:34:07;;;;;;;;;;;;;;;8.47;38.42;98973.66;1687422;84;24941;-83
2022/03/13 12:36:34;;;;;;;;;;;;;;;8.50;38.35;98976.12;1687605;83;21850;-82
2022/03/13 12:39:00;;;;;;;;;;;;;;;8.58;38.29;98980.45;1694452;83;26026;-85
2022/03/13 12:41:28;;;;;;;;;;;;;;;8.59;38.12;98971.71;1693489;83;24449;-85
2022/03/13 12:43:57;;;;;;;;;;;;;;;8.62;37.99;98969.41;1693515;83;20282;-85
2022/03/13 12:46:24;;;;;;;;;;;;;;;8.66;37.93;98966.55;1687068;83;26768;-85
2022/03/13 12:48:55;;;;;;;;;;;;;;;8.73;37.89;98960.06;1692139;83;22134;-82
2022/03/13 12:51:35;;;;;;;;;;;;;;;8.78;37.85;98957.23;1692807;83;25969;-81